Wetterdaten: Woche 03.03.14 - 09.03.14 (KW10)
Datum Zeit Temp. A. Feuchte A. Luftdruck Regen Wind Richtung Sonnenschein ET UV Solar Taupunkt Windchill Windben
03.03.2014 00:00 0,5 C 92 % 1000,9 hPa 0,0 l/m 0,7 km/h (0 Bft) O-NO 0,00 h 0,000 mm 0,0 UV-I 0 W/m -0,6 C 0,5 C 1,6 km/h (1 Bft)
03.03.2014 01:00 -0,3 C 93 % 999,5 hPa 0,0 l/m 2,4 km/h (1 Bft) O-SO 0,00 h 0,000 mm 0,0 UV-I 0 W/m -1,2 C -0,3 C 4,3 km/h (1 Bft)
03.03.2014 02:00 2,3 C 95 % 998,2 hPa 0,0 l/m 5,1 km/h (1 Bft) O-SO 0,00 h 0,000 mm 0,0 UV-I 0 W/m 1,5 C 2,0 C 10,0 km/h (2 Bft)
03.03.2014 03:00 2,2 C 93 % 997,2 hPa 0,0 l/m 3,2 km/h (1 Bft) O-SO 0,00 h 0,000 mm 0,0 UV-I 0 W/m 1,2 C 2,0 C 6,3 km/h (2 Bft)
03.03.2014 04:00 1,7 C 93 % 997,0 hPa 0,0 l/m 5,9 km/h (2 Bft) O-NO 0,00 h 0,000 mm 0,0 UV-I 0 W/m 0,7 C 1,4 C 9,9 km/h (2 Bft)
03.03.2014 05:00 1,5 C 92 % 996,6 hPa 0,0 l/m 5,9 km/h (2 Bft) O 0,00 h 0,000 mm 0,0 UV-I 0 W/m 0,3 C 1,0 C 9,1 km/h (2 Bft)
03.03.2014 06:00 1,4 C 91 % 996,2 hPa 0,0 l/m 3,4 km/h (1 Bft) O 0,00 h 0,000 mm 0,0 UV-I 0 W/m 0,2 C 1,4 C 6,8 km/h (2 Bft)
03.03.2014 07:00 1,3 C 92 % 995,8 hPa 0,0 l/m 2,6 km/h (1 Bft) O-NO 0,15 h 0,000 mm 0,0 UV-I 30 W/m 0,1 C 1,3 C 5,0 km/h (1 Bft)
03.03.2014 08:00 3,8 C 85 % 995,5 hPa 0,0 l/m 2,8 km/h (1 Bft) O-SO 1,00 h 0,025 mm 0,6 UV-I 197 W/m 1,4 C 3,8 C 5,4 km/h (1 Bft)
03.03.2014 09:00 5,7 C 77 % 995,1 hPa 0,0 l/m 5,3 km/h (1 Bft) O-SO 1,00 h 0,076 mm 1,1 UV-I 339 W/m 1,9 C 5,5 C 9,3 km/h (2 Bft)
03.03.2014 10:00 7,9 C 68 % 995,0 hPa 0,0 l/m 5,8 km/h (2 Bft) SO 1,00 h 0,152 mm 1,4 UV-I 331 W/m 2,4 C 7,4 C 10,2 km/h (2 Bft)
03.03.2014 11:00 9,8 C 59 % 994,8 hPa 0,0 l/m 7,3 km/h (2 Bft) SO 1,00 h 0,152 mm 1,9 UV-I 429 W/m 2,1 C 8,8 C 11,1 km/h (2 Bft)
03.03.2014 12:00 10,7 C 53 % 994,4 hPa 0,0 l/m 9,1 km/h (2 Bft) S 1,00 h 0,229 mm 1,7 UV-I 239 W/m 1,6 C 8,7 C 14,2 km/h (3 Bft)
03.03.2014 13:00 10,9 C 48 % 994,1 hPa 0,0 l/m 9,6 km/h (2 Bft) W-SW 1,00 h 0,178 mm 1,8 UV-I 378 W/m 0,5 C 8,8 C 14,4 km/h (3 Bft)
03.03.2014 14:00 11,3 C 46 % 994,0 hPa 0,0 l/m 6,5 km/h (2 Bft) W-SW 1,00 h 0,229 mm 1,5 UV-I 444 W/m 0,2 C 10,7 C 9,8 km/h (2 Bft)
03.03.2014 15:00 11,4 C 43 % 993,9 hPa 0,0 l/m 5,0 km/h (1 Bft) S 1,00 h 0,254 mm 0,9 UV-I 278 W/m -0,7 C 11,1 C 8,0 km/h (2 Bft)
03.03.2014 16:00 10,6 C 47 % 994,1 hPa 0,0 l/m 4,5 km/h (1 Bft) W-SW 0,77 h 0,178 mm 0,5 UV-I 89 W/m -0,3 C 10,4 C 7,0 km/h (2 Bft)
03.03.2014 17:00 9,3 C 54 % 994,5 hPa 0,0 l/m 2,9 km/h (1 Bft) W-SW 0,00 h 0,076 mm 0,0 UV-I 22 W/m 0,4 C 9,3 C 4,9 km/h (1 Bft)
03.03.2014 18:00 7,4 C 62 % 995,3 hPa 0,0 l/m 0,9 km/h (0 Bft) W-NW 0,00 h 0,025 mm 0,0 UV-I 0 W/m 0,6 C 7,4 C 2,3 km/h (1 Bft)
03.03.2014 19:00 5,5 C 71 % 995,9 hPa 0,0 l/m 0,9 km/h (0 Bft) NW 0,00 h 0,000 mm 0,0 UV-I 0 W/m 0,6 C 5,5 C 1,7 km/h (1 Bft)
03.03.2014 20:00 3,7 C 78 % 996,1 hPa 0,0 l/m 0,1 km/h (0 Bft) NW 0,00 h 0,025 mm 0,0 UV-I 0 W/m 0,2 C 3,7 C 0,5 km/h (0 Bft)
03.03.2014 21:00 2,1 C 83 % 996,5 hPa 0,0 l/m 0,2 km/h (0 Bft) NW 0,00 h 0,000 mm 0,0 UV-I 0 W/m -0,4 C 2,1 C 0,4 km/h (0 Bft)
03.03.2014 22:00 0,8 C 87 % 996,7 hPa 0,0 l/m 0,2 km/h (0 Bft) NW 0,00 h 0,000 mm 0,0 UV-I 0 W/m -1,1 C 0,8 C 0,4 km/h (0 Bft)
03.03.2014 23:00 0,3 C 89 % 996,8 hPa 0,0 l/m 1,0 km/h (0 Bft) NW 0,00 h 0,000 mm 0,0 UV-I 0 W/m -1,3 C 0,3 C 2,1 km/h (1 Bft)
04.03.2014 00:00 -0,2 C 90 % 997,0 hPa 0,0 l/m 1,4 km/h (1 Bft) NW 0,00 h 0,000 mm 0,0 UV-I 0 W/m -1,7 C -0,2 C 2,6 km/h (1 Bft)
04.03.2014 01:00 -0,4 C 92 % 997,3 hPa 0,0 l/m 1,2 km/h (1 Bft) NW 0,00 h 0,000 mm 0,0 UV-I 0 W/m -1,5 C -0,4 C 2,2 km/h (1 Bft)
04.03.2014 02:00 0,7 C 94 % 997,4 hPa 0,0 l/m 0,8 km/h (0 Bft) NW 0,00 h 0,000 mm 0,0 UV-I 0 W/m -0,2 C 0,7 C 1,9 km/h (1 Bft)
04.03.2014 03:00 0,8 C 92 % 997,6 hPa 0,0 l/m 0,8 km/h (0 Bft) NW 0,00 h 0,000 mm 0,0 UV-I 0 W/m -0,3 C 0,8 C 1,9 km/h (1 Bft)
04.03.2014 04:00 1,1 C 93 % 997,9 hPa 0,0 l/m 1,9 km/h (1 Bft) NW 0,00 h 0,000 mm 0,0 UV-I 0 W/m 0,0 C 1,1 C 3,4 km/h (1 Bft)
04.03.2014 05:00 1,4 C 93 % 998,2 hPa 0,0 l/m 1,4 km/h (1 Bft) NW 0,00 h 0,000 mm 0,0 UV-I 0 W/m 0,3 C 1,4 C 2,7 km/h (1 Bft)
04.03.2014 06:00 1,6 C 93 % 998,7 hPa 0,0 l/m 1,5 km/h (1 Bft) NW 0,00 h 0,000 mm 0,0 UV-I 0 W/m 0,5 C 1,6 C 2,2 km/h (1 Bft)
04.03.2014 07:00 2,0 C 94 % 999,5 hPa 0,0 l/m 0,4 km/h (0 Bft) NO 0,00 h 0,000 mm 0,0 UV-I 10 W/m 1,0 C 2,0 C 1,1 km/h (0 Bft)
04.03.2014 08:00 2,9 C 95 % 1000,2 hPa 0,2 l/m 0,7 km/h (0 Bft) N 0,00 h 0,000 mm 0,0 UV-I 14 W/m 2,2 C 2,9 C 2,0 km/h (1 Bft)
04.03.2014 09:00 3,6 C 95 % 1000,8 hPa 0,0 l/m 5,7 km/h (1 Bft) N 0,75 h 0,000 mm 0,5 UV-I 70 W/m 2,9 C 3,3 C 8,3 km/h (2 Bft)
04.03.2014 10:00 4,5 C 93 % 1001,1 hPa 0,0 l/m 4,3 km/h (1 Bft) N 0,75 h 0,025 mm 0,6 UV-I 72 W/m 3,4 C 4,5 C 6,4 km/h (2 Bft)
04.03.2014 11:00 5,4 C 91 % 1001,6 hPa 0,0 l/m 4,2 km/h (1 Bft) N 1,00 h 0,025 mm 0,7 UV-I 104 W/m 4,1 C 5,4 C 6,3 km/h (2 Bft)
04.03.2014 12:00 6,4 C 86 % 1002,0 hPa 0,0 l/m 4,7 km/h (1 Bft) N 1,00 h 0,051 mm 0,8 UV-I 118 W/m 4,2 C 6,2 C 7,3 km/h (2 Bft)
04.03.2014 13:00 6,7 C 81 % 1002,4 hPa 0,0 l/m 3,3 km/h (1 Bft) N 1,00 h 0,051 mm 0,7 UV-I 96 W/m 3,8 C 6,6 C 6,1 km/h (2 Bft)
04.03.2014 14:00 6,9 C 79 % 1002,8 hPa 0,0 l/m 3,8 km/h (1 Bft) O-SO 1,00 h 0,051 mm 0,8 UV-I 163 W/m 3,5 C 6,8 C 6,8 km/h (2 Bft)
04.03.2014 15:00 6,8 C 78 % 1003,4 hPa 0,0 l/m 2,7 km/h (1 Bft) O-NO 0,73 h 0,076 mm 0,7 UV-I 92 W/m 3,2 C 6,8 C 5,4 km/h (1 Bft)
04.03.2014 16:00 6,6 C 78 % 1004,2 hPa 0,0 l/m 0,8 km/h (0 Bft) O-NO 0,00 h 0,051 mm 0,0 UV-I 18 W/m 3,1 C 6,6 C 2,3 km/h (1 Bft)
04.03.2014 17:00 6,3 C 80 % 1004,9 hPa 0,0 l/m 0,5 km/h (0 Bft) O-NO 0,00 h 0,000 mm 0,0 UV-I 12 W/m 3,1 C 6,3 C 1,4 km/h (1 Bft)
04.03.2014 18:00 5,9 C 82 % 1005,7 hPa 0,0 l/m 1,9 km/h (1 Bft) N 0,00 h 0,000 mm 0,0 UV-I 0 W/m 3,1 C 5,9 C 3,3 km/h (1 Bft)
04.03.2014 19:00 5,3 C 85 % 1006,3 hPa 0,0 l/m 3,2 km/h (1 Bft) N 0,00 h 0,025 mm 0,0 UV-I 0 W/m 3,0 C 5,3 C 5,0 km/h (1 Bft)
04.03.2014 20:00 4,4 C 88 % 1007,1 hPa 0,0 l/m 0,2 km/h (0 Bft) N 0,00 h 0,000 mm 0,0 UV-I 0 W/m 2,6 C 4,4 C 0,6 km/h (0 Bft)
04.03.2014 21:00 3,1 C 90 % 1007,9 hPa 0,0 l/m 0,9 km/h (0 Bft) O-SO 0,00 h 0,000 mm 0,0 UV-I 0 W/m 1,7 C 3,1 C 1,8 km/h (1 Bft)
04.03.2014 22:00 2,4 C 93 % 1008,6 hPa 0,0 l/m 0,3 km/h (0 Bft) O-SO 0,00 h 0,000 mm 0,0 UV-I 0 W/m 1,4 C 2,4 C 0,9 km/h (0 Bft)
04.03.2014 23:00 1,6 C 93 % 1009,1 hPa 0,0 l/m 1,7 km/h (1 Bft) O-SO 0,00 h 0,000 mm 0,0 UV-I 0 W/m 0,6 C 1,6 C 2,8 km/h (1 Bft)
05.03.2014 00:00 0,8 C 94 % 1009,5 hPa 0,0 l/m 0,6 km/h (0 Bft) O 0,00 h 0,000 mm 0,0 UV-I 0 W/m -0,1 C 0,8 C 1,5 km/h (1 Bft)
05.03.2014 01:00 0,2 C 94 % 1010,1 hPa 0,0 l/m 1,3 km/h (1 Bft) O-NO 0,00 h 0,000 mm 0,0 UV-I 0 W/m -0,6 C 0,2 C 2,3 km/h (1 Bft)
05.03.2014 02:00 0,3 C 95 % 1010,4 hPa 0,0 l/m 0,2 km/h (0 Bft) O-SO 0,00 h 0,000 mm 0,0 UV-I 0 W/m -0,4 C 0,3 C 0,8 km/h (0 Bft)
05.03.2014 03:00 0,6 C 95 % 1010,9 hPa 0,0 l/m 0,0 km/h (0 Bft) O-SO 0,00 h 0,000 mm 0,0 UV-I 0 W/m -0,0 C 0,6 C 0,1 km/h (0 Bft)
05.03.2014 04:00 0,6 C 95 % 1011,7 hPa 0,0 l/m 0,0 km/h (0 Bft) N 0,00 h 0,000 mm 0,0 UV-I 0 W/m -0,1 C 0,6 C 0,0 km/h (0 Bft)
05.03.2014 05:00 0,7 C 95 % 1012,2 hPa 0,0 l/m 0,0 km/h (0 Bft) N 0,00 h 0,000 mm 0,0 UV-I 0 W/m -0,0 C 0,7 C 0,2 km/h (0 Bft)
05.03.2014 06:00 0,7 C 95 % 1012,7 hPa 0,0 l/m 0,0 km/h (0 Bft) N 0,00 h 0,000 mm 0,0 UV-I 0 W/m 0,0 C 0,7 C 0,1 km/h (0 Bft)
05.03.2014 07:00 1,0 C 95 % 1013,7 hPa 0,0 l/m 0,1 km/h (0 Bft) N-NO 0,02 h 0,000 mm 0,0 UV-I 20 W/m 0,3 C 1,0 C 0,4 km/h (0 Bft)
05.03.2014 08:00 1,9 C 94 % 1014,7 hPa 0,0 l/m 0,1 km/h (0 Bft) N-NO 1,00 h 0,000 mm 0,6 UV-I 119 W/m 1,1 C 1,9 C 0,9 km/h (0 Bft)
05.03.2014 09:00 5,3 C 86 % 1015,1 hPa 0,0 l/m 2,2 km/h (1 Bft) N-NO 1,00 h 0,051 mm 1,0 UV-I 278 W/m 3,1 C 5,2 C 4,3 km/h (1 Bft)
05.03.2014 10:00 7,9 C 75 % 1015,5 hPa 0,0 l/m 8,3 km/h (2 Bft) N 1,00 h 0,127 mm 1,5 UV-I 326 W/m 3,7 C 6,3 C 12,8 km/h (3 Bft)
05.03.2014 11:00 8,9 C 68 % 1016,0 hPa 0,0 l/m 7,4 km/h (2 Bft) N 1,00 h 0,152 mm 1,5 UV-I 299 W/m 3,3 C 7,9 C 11,2 km/h (2 Bft)
05.03.2014 12:00 9,4 C 59 % 1016,5 hPa 0,0 l/m 9,9 km/h (2 Bft) N 1,00 h 0,152 mm 1,6 UV-I 255 W/m 1,9 C 7,1 C 15,4 km/h (3 Bft)
05.03.2014 13:00 10,4 C 51 % 1016,7 hPa 0,0 l/m 10,9 km/h (2 Bft) N 1,00 h 0,152 mm 1,5 UV-I 289 W/m 0,8 C 7,6 C 17,0 km/h (3 Bft)
05.03.2014 14:00 10,1 C 53 % 1017,1 hPa 0,0 l/m 12,5 km/h (3 Bft) NW 1,00 h 0,178 mm 1,3 UV-I 367 W/m 0,9 C 6,5 C 19,3 km/h (3 Bft)
05.03.2014 15:00 9,9 C 51 % 1017,7 hPa 0,0 l/m 13,0 km/h (3 Bft) N 1,00 h 0,229 mm 0,9 UV-I 259 W/m 0,2 C 6,0 C 19,4 km/h (3 Bft)
05.03.2014 16:00 8,7 C 56 % 1018,5 hPa 0,0 l/m 10,4 km/h (2 Bft) N 0,47 h 0,178 mm 0,6 UV-I 73 W/m 0,3 C 6,1 C 15,6 km/h (3 Bft)
05.03.2014 17:00 7,5 C 59 % 1019,6 hPa 0,0 l/m 8,6 km/h (2 Bft) N 0,00 h 0,076 mm 0,0 UV-I 21 W/m 0,1 C 5,7 C 12,8 km/h (3 Bft)
05.03.2014 18:00 6,6 C 65 % 1020,8 hPa 0,0 l/m 5,4 km/h (1 Bft) N 0,00 h 0,051 mm 0,0 UV-I 0 W/m 0,5 C 6,5 C 8,0 km/h (2 Bft)
05.03.2014 19:00 5,5 C 70 % 1021,7 hPa 0,0 l/m 4,6 km/h (1 Bft) N 0,00 h 0,025 mm 0,0 UV-I 0 W/m 0,5 C 5,5 C 6,3 km/h (2 Bft)
05.03.2014 20:00 4,2 C 76 % 1022,6 hPa 0,0 l/m 3,6 km/h (1 Bft) N 0,00 h 0,025 mm 0,0 UV-I 0 W/m 0,3 C 4,2 C 5,4 km/h (1 Bft)
05.03.2014 21:00 2,9 C 81 % 1023,6 hPa 0,0 l/m 2,5 km/h (1 Bft) N 0,00 h 0,025 mm 0,0 UV-I 0 W/m 0,1 C 2,9 C 4,0 km/h (1 Bft)
05.03.2014 22:00 1,6 C 85 % 1024,2 hPa 0,0 l/m 0,1 km/h (0 Bft) N 0,00 h 0,000 mm 0,0 UV-I 0 W/m -0,6 C 1,6 C 0,5 km/h (0 Bft)
05.03.2014 23:00 0,2 C 89 % 1024,7 hPa 0,0 l/m 0,4 km/h (0 Bft) N 0,00 h 0,000 mm 0,0 UV-I 0 W/m -1,5 C 0,2 C 0,9 km/h (0 Bft)
06.03.2014 00:00 -0,5 C 90 % 1025,1 hPa 0,0 l/m 0,2 km/h (0 Bft) N 0,00 h 0,000 mm 0,0 UV-I 0 W/m -1,9 C -0,5 C 0,6 km/h (0 Bft)
06.03.2014 01:00 -1,0 C 91 % 1025,5 hPa 0,0 l/m 0,3 km/h (0 Bft) N 0,00 h 0,000 mm 0,0 UV-I 0 W/m -2,2 C -1,0 C 0,9 km/h (0 Bft)
06.03.2014 02:00 -1,4 C 92 % 1026,0 hPa 0,0 l/m 0,2 km/h (0 Bft) N 0,00 h 0,000 mm 0,0 UV-I 0 W/m -2,6 C -1,4 C 0,4 km/h (0 Bft)
06.03.2014 03:00 -1,8 C 92 % 1026,3 hPa 0,0 l/m 0,3 km/h (0 Bft) N 0,00 h 0,000 mm 0,0 UV-I 0 W/m -2,9 C -1,8 C 0,9 km/h (0 Bft)
06.03.2014 04:00 -2,1 C 93 % 1026,9 hPa 0,0 l/m 0,4 km/h (0 Bft) N 0,00 h 0,000 mm 0,0 UV-I 0 W/m -3,1 C -2,1 C 1,1 km/h (0 Bft)
06.03.2014 05:00 -2,1 C 94 % 1027,6 hPa 0,0 l/m 0,2 km/h (0 Bft) N 0,00 h 0,000 mm 0,0 UV-I 0 W/m -3,0 C -2,1 C 0,7 km/h (0 Bft)
06.03.2014 06:00 -2,3 C 93 % 1028,0 hPa 0,0 l/m 0,1 km/h (0 Bft) N 0,00 h 0,000 mm 0,0 UV-I 6 W/m -3,2 C -2,3 C 0,5 km/h (0 Bft)
06.03.2014 07:00 -1,9 C 94 % 1028,6 hPa 0,0 l/m 0,1 km/h (0 Bft) N 0,25 h 0,000 mm 0,0 UV-I 36 W/m -2,7 C -1,9 C 0,3 km/h (0 Bft)
06.03.2014 08:00 0,5 C 93 % 1029,4 hPa 0,0 l/m 0,1 km/h (0 Bft) N 1,00 h 0,000 mm 0,6 UV-I 132 W/m -0,5 C 0,5 C 0,4 km/h (0 Bft)
06.03.2014 09:00 3,1 C 90 % 1029,9 hPa 0,0 l/m 1,7 km/h (1 Bft) N 1,00 h 0,051 mm 1,0 UV-I 252 W/m 1,6 C 3,1 C 3,0 km/h (1 Bft)
06.03.2014 10:00 6,9 C 76 % 1030,1 hPa 0,0 l/m 4,0 km/h (1 Bft) N 1,00 h 0,102 mm 1,6 UV-I 310 W/m 2,9 C 6,6 C 7,2 km/h (2 Bft)
06.03.2014 11:00 7,6 C 69 % 1030,1 hPa 0,0 l/m 3,7 km/h (1 Bft) N 1,00 h 0,152 mm 1,9 UV-I 346 W/m 2,3 C 7,6 C 6,2 km/h (2 Bft)
06.03.2014 12:00 8,1 C 65 % 1030,0 hPa 0,0 l/m 3,8 km/h (1 Bft) N 1,00 h 0,152 mm 1,5 UV-I 237 W/m 1,9 C 8,0 C 6,2 km/h (2 Bft)
06.03.2014 13:00 8,9 C 63 % 1029,7 hPa 0,0 l/m 6,1 km/h (2 Bft) N 1,00 h 0,127 mm 1,6 UV-I 318 W/m 2,2 C 8,2 C 9,3 km/h (2 Bft)
06.03.2014 14:00 8,1 C 66 % 1029,6 hPa 0,0 l/m 7,3 km/h (2 Bft) N 1,00 h 0,178 mm 0,7 UV-I 117 W/m 2,2 C 7,1 C 11,2 km/h (2 Bft)
06.03.2014 15:00 7,9 C 67 % 1029,5 hPa 0,0 l/m 4,8 km/h (1 Bft) N 1,00 h 0,076 mm 0,6 UV-I 87 W/m 2,1 C 7,7 C 7,7 km/h (2 Bft)
06.03.2014 16:00 7,6 C 67 % 1029,5 hPa 0,0 l/m 4,8 km/h (1 Bft) N-NO 0,93 h 0,051 mm 0,0 UV-I 57 W/m 2,0 C 7,6 C 7,5 km/h (2 Bft)
06.03.2014 17:00 7,2 C 68 % 1029,4 hPa 0,0 l/m 3,8 km/h (1 Bft) N-NO 0,02 h 0,051 mm 0,0 UV-I 23 W/m 1,7 C 7,2 C 6,6 km/h (2 Bft)
06.03.2014 18:00 6,0 C 73 % 1029,8 hPa 0,0 l/m 1,2 km/h (1 Bft) NO 0,00 h 0,025 mm 0,0 UV-I 0 W/m 1,5 C 6,0 C 2,5 km/h (1 Bft)
06.03.2014 19:00 5,0 C 76 % 1030,1 hPa 0,0 l/m 2,2 km/h (1 Bft) NO 0,00 h 0,000 mm 0,0 UV-I 0 W/m 1,2 C 5,0 C 3,8 km/h (1 Bft)
06.03.2014 20:00 4,3 C 79 % 1030,2 hPa 0,0 l/m 1,4 km/h (1 Bft) O 0,00 h 0,025 mm 0,0 UV-I 0 W/m 1,0 C 4,3 C 2,9 km/h (1 Bft)
06.03.2014 21:00 2,8 C 83 % 1030,1 hPa 0,0 l/m 0,7 km/h (0 Bft) O 0,00 h 0,025 mm 0,0 UV-I 0 W/m 0,2 C 2,8 C 1,6 km/h (1 Bft)
06.03.2014 22:00 1,3 C 86 % 1030,2 hPa 0,0 l/m 0,2 km/h (0 Bft) N-NO 0,00 h 0,000 mm 0,0 UV-I 0 W/m -0,8 C 1,3 C 0,7 km/h (0 Bft)
06.03.2014 23:00 -0,1 C 89 % 1030,2 hPa 0,0 l/m 0,1 km/h (0 Bft) N-NO 0,00 h 0,000 mm 0,0 UV-I 0 W/m -1,7 C -0,1 C 0,2 km/h (0 Bft)
07.03.2014 00:00 -1,0 C 91 % 1030,0 hPa 0,0 l/m 0,1 km/h (0 Bft) N-NO 0,00 h 0,000 mm 0,0 UV-I 0 W/m -2,3 C -1,0 C 0,2 km/h (0 Bft)
07.03.2014 01:00 -1,6 C 91 % 1029,9 hPa 0,0 l/m 0,1 km/h (0 Bft) N-NO 0,00 h 0,000 mm 0,0 UV-I 0 W/m -2,8 C -1,6 C 0,5 km/h (0 Bft)
07.03.2014 02:00 -1,9 C 92 % 1029,5 hPa 0,0 l/m 0,4 km/h (0 Bft) N 0,00 h 0,000 mm 0,0 UV-I 0 W/m -3,0 C -1,9 C 0,8 km/h (0 Bft)
07.03.2014 03:00 -2,5 C 92 % 1029,0 hPa 0,0 l/m 0,0 km/h (0 Bft) N 0,00 h 0,000 mm 0,0 UV-I 0 W/m -3,6 C -2,5 C 0,2 km/h (0 Bft)
07.03.2014 04:00 -2,9 C 92 % 1028,8 hPa 0,0 l/m 0,1 km/h (0 Bft) N 0,00 h 0,000 mm 0,0 UV-I 0 W/m -4,0 C -2,9 C 0,4 km/h (0 Bft)
07.03.2014 05:00 -3,3 C 92 % 1028,5 hPa 0,0 l/m 0,0 km/h (0 Bft) N 0,00 h 0,000 mm 0,0 UV-I 0 W/m -4,3 C -3,3 C 0,1 km/h (0 Bft)
07.03.2014 06:00 -3,4 C 93 % 1028,5 hPa 0,0 l/m 1,4 km/h (1 Bft) N 0,00 h 0,000 mm 0,0 UV-I 8 W/m -4,3 C -3,4 C 2,8 km/h (1 Bft)
07.03.2014 07:00 -3,0 C 94 % 1028,6 hPa 0,0 l/m 0,2 km/h (0 Bft) N 0,35 h 0,000 mm 0,0 UV-I 48 W/m -3,9 C -3,0 C 0,6 km/h (0 Bft)
07.03.2014 08:00 -0,0 C 90 % 1028,6 hPa 0,0 l/m 0,3 km/h (0 Bft) N 1,00 h 0,025 mm 0,7 UV-I 192 W/m -1,6 C -0,0 C 1,1 km/h (0 Bft)
07.03.2014 09:00 4,0 C 80 % 1028,4 hPa 0,0 l/m 0,7 km/h (0 Bft) N 1,00 h 0,051 mm 1,3 UV-I 318 W/m 0,9 C 4,0 C 1,8 km/h (1 Bft)
07.03.2014 10:00 6,2 C 73 % 1028,1 hPa 0,0 l/m 2,2 km/h (1 Bft) S 1,00 h 0,127 mm 1,9 UV-I 321 W/m 1,7 C 6,2 C 4,3 km/h (1 Bft)
07.03.2014 11:00 7,7 C 67 % 1027,6 hPa 0,0 l/m 2,7 km/h (1 Bft) SO 1,00 h 0,152 mm 2,4 UV-I 405 W/m 1,9 C 7,7 C 5,2 km/h (1 Bft)
07.03.2014 12:00 8,8 C 62 % 1027,2 hPa 0,0 l/m 3,6 km/h (1 Bft) S-SW 1,00 h 0,178 mm 2,4 UV-I 300 W/m 1,9 C 8,8 C 5,9 km/h (2 Bft)
07.03.2014 13:00 10,3 C 55 % 1026,6 hPa 0,0 l/m 2,7 km/h (1 Bft) NW 1,00 h 0,152 mm 2,3 UV-I 379 W/m 1,6 C 10,3 C 5,0 km/h (1 Bft)
07.03.2014 14:00 11,4 C 48 % 1026,1 hPa 0,0 l/m 3,0 km/h (1 Bft) NW 1,00 h 0,204 mm 1,9 UV-I 423 W/m 0,8 C 11,3 C 4,9 km/h (1 Bft)
07.03.2014 15:00 11,2 C 44 % 1025,9 hPa 0,0 l/m 3,0 km/h (1 Bft) NW 1,00 h 0,229 mm 1,0 UV-I 236 W/m -0,5 C 11,2 C 5,0 km/h (1 Bft)
07.03.2014 16:00 11,2 C 43 % 1025,7 hPa 0,0 l/m 3,3 km/h (1 Bft) NW 1,00 h 0,127 mm 0,6 UV-I 169 W/m -1,0 C 11,2 C 5,0 km/h (1 Bft)
07.03.2014 17:00 10,1 C 51 % 1025,9 hPa 0,0 l/m 1,5 km/h (1 Bft) NW 0,43 h 0,102 mm 0,0 UV-I 44 W/m 0,5 C 10,1 C 2,6 km/h (1 Bft)
07.03.2014 18:00 7,8 C 62 % 1026,3 hPa 0,0 l/m 0,3 km/h (0 Bft) O 0,00 h 0,025 mm 0,0 UV-I 0 W/m 1,0 C 7,8 C 1,0 km/h (0 Bft)
07.03.2014 19:00 5,2 C 74 % 1026,8 hPa 0,0 l/m 0,5 km/h (0 Bft) O 0,00 h 0,000 mm 0,0 UV-I 0 W/m 0,9 C 5,2 C 1,5 km/h (1 Bft)
07.03.2014 20:00 3,3 C 81 % 1026,9 hPa 0,0 l/m 0,0 km/h (0 Bft) O 0,00 h 0,025 mm 0,0 UV-I 0 W/m 0,4 C 3,3 C 0,2 km/h (0 Bft)
07.03.2014 21:00 2,5 C 84 % 1027,0 hPa 0,0 l/m 0,2 km/h (0 Bft) O 0,00 h 0,000 mm 0,0 UV-I 0 W/m 0,1 C 2,5 C 0,9 km/h (0 Bft)
07.03.2014 22:00 2,2 C 86 % 1027,3 hPa 0,0 l/m 0,1 km/h (0 Bft) O-SO 0,00 h 0,000 mm 0,0 UV-I 0 W/m 0,2 C 2,2 C 0,5 km/h (0 Bft)
07.03.2014 23:00 2,2 C 87 % 1028,2 hPa 0,0 l/m 0,6 km/h (0 Bft) N-NO 0,00 h 0,000 mm 0,0 UV-I 0 W/m 0,3 C 2,2 C 1,4 km/h (1 Bft)
08.03.2014 00:00 2,2 C 88 % 1028,6 hPa 0,0 l/m 1,0 km/h (0 Bft) SO 0,00 h 0,000 mm 0,0 UV-I 0 W/m 0,4 C 2,2 C 2,1 km/h (1 Bft)
08.03.2014 01:00 2,3 C 88 % 1028,9 hPa 0,0 l/m 0,1 km/h (0 Bft) O-SO 0,00 h 0,000 mm 0,0 UV-I 0 W/m 0,5 C 2,3 C 0,5 km/h (0 Bft)
08.03.2014 02:00 1,6 C 89 % 1029,0 hPa 0,0 l/m 1,1 km/h (1 Bft) N 0,00 h 0,000 mm 0,0 UV-I 0 W/m -0,1 C 1,6 C 1,9 km/h (1 Bft)
08.03.2014 03:00 0,1 C 91 % 1029,7 hPa 0,0 l/m 0,3 km/h (0 Bft) O-SO 0,00 h 0,000 mm 0,0 UV-I 0 W/m -1,2 C 0,1 C 1,0 km/h (0 Bft)
08.03.2014 04:00 -0,6 C 93 % 1030,4 hPa 0,0 l/m 0,2 km/h (0 Bft) SO 0,00 h 0,000 mm 0,0 UV-I 0 W/m -1,7 C -0,6 C 0,5 km/h (0 Bft)
08.03.2014 05:00 -1,3 C 93 % 1031,0 hPa 0,0 l/m 0,2 km/h (0 Bft) O-SO 0,00 h 0,000 mm 0,0 UV-I 0 W/m -2,2 C -1,3 C 0,5 km/h (0 Bft)
08.03.2014 06:00 -1,7 C 93 % 1031,9 hPa 0,0 l/m 0,7 km/h (0 Bft) O-SO 0,00 h 0,000 mm 0,0 UV-I 6 W/m -2,6 C -1,7 C 1,8 km/h (1 Bft)
08.03.2014 07:00 -1,2 C 94 % 1033,0 hPa 0,0 l/m 0,3 km/h (0 Bft) N-NO 0,40 h 0,000 mm 0,0 UV-I 51 W/m -2,1 C -1,2 C 0,9 km/h (0 Bft)
08.03.2014 08:00 1,1 C 90 % 1033,9 hPa 0,0 l/m 0,6 km/h (0 Bft) SO 1,00 h 0,025 mm 0,6 UV-I 192 W/m -0,4 C 1,1 C 1,8 km/h (1 Bft)
08.03.2014 09:00 6,3 C 76 % 1034,2 hPa 0,0 l/m 1,8 km/h (1 Bft) NW 1,00 h 0,076 mm 1,1 UV-I 304 W/m 2,3 C 6,3 C 3,0 km/h (1 Bft)
08.03.2014 10:00 8,8 C 68 % 1034,3 hPa 0,0 l/m 2,7 km/h (1 Bft) W 1,00 h 0,127 mm 1,6 UV-I 330 W/m 3,2 C 8,8 C 4,8 km/h (1 Bft)
08.03.2014 11:00 10,4 C 61 % 1033,8 hPa 0,0 l/m 2,7 km/h (1 Bft) S-SO 1,00 h 0,153 mm 2,0 UV-I 382 W/m 3,3 C 10,4 C 5,1 km/h (1 Bft)
08.03.2014 12:00 12,0 C 56 % 1033,7 hPa 0,0 l/m 2,3 km/h (1 Bft) N-NO 1,00 h 0,178 mm 1,9 UV-I 316 W/m 3,5 C 12,0 C 4,7 km/h (1 Bft)
08.03.2014 13:00 12,5 C 52 % 1033,4 hPa 0,0 l/m 4,9 km/h (1 Bft) S-SO 1,00 h 0,178 mm 1,9 UV-I 387 W/m 3,0 C 12,3 C 7,6 km/h (2 Bft)
08.03.2014 14:00 13,1 C 48 % 1033,2 hPa 0,0 l/m 2,8 km/h (1 Bft) SO 1,00 h 0,229 mm 1,5 UV-I 409 W/m 2,4 C 13,1 C 4,8 km/h (1 Bft)
08.03.2014 15:00 13,6 C 46 % 1032,9 hPa 0,0 l/m 1,8 km/h (1 Bft) SO 1,00 h 0,229 mm 1,0 UV-I 296 W/m 2,3 C 13,6 C 3,4 km/h (1 Bft)
08.03.2014 16:00 13,2 C 47 % 1032,7 hPa 0,0 l/m 1,8 km/h (1 Bft) S-SO 1,00 h 0,178 mm 0,6 UV-I 157 W/m 2,2 C 13,2 C 3,7 km/h (1 Bft)
08.03.2014 17:00 12,3 C 51 % 1032,8 hPa 0,0 l/m 0,3 km/h (0 Bft) O 0,28 h 0,102 mm 0,0 UV-I 36 W/m 2,5 C 12,3 C 1,2 km/h (1 Bft)
08.03.2014 18:00 9,6 C 64 % 1033,5 hPa 0,0 l/m 2,1 km/h (1 Bft) O 0,00 h 0,025 mm 0,0 UV-I 0 W/m 3,0 C 9,6 C 3,8 km/h (1 Bft)
08.03.2014 19:00 7,5 C 70 % 1033,9 hPa 0,0 l/m 2,4 km/h (1 Bft) O 0,00 h 0,025 mm 0,0 UV-I 0 W/m 2,4 C 7,5 C 4,1 km/h (1 Bft)
08.03.2014 20:00 5,4 C 77 % 1034,3 hPa 0,0 l/m 4,3 km/h (1 Bft) O-NO 0,00 h 0,025 mm 0,0 UV-I 0 W/m 1,7 C 5,4 C 6,5 km/h (2 Bft)
08.03.2014 21:00 3,9 C 82 % 1034,6 hPa 0,0 l/m 2,3 km/h (1 Bft) O-NO 0,00 h 0,025 mm 0,0 UV-I 0 W/m 1,0 C 3,9 C 4,3 km/h (1 Bft)
08.03.2014 22:00 2,6 C 85 % 1034,6 hPa 0,0 l/m 2,1 km/h (1 Bft) O-NO 0,00 h 0,000 mm 0,0 UV-I 0 W/m 0,4 C 2,6 C 4,5 km/h (1 Bft)
08.03.2014 23:00 4,1 C 84 % 1034,4 hPa 0,0 l/m 5,3 km/h (1 Bft) O-NO 0,00 h 0,000 mm 0,0 UV-I 0 W/m 1,7 C 3,9 C 9,2 km/h (2 Bft)
09.03.2014 00:00 5,0 C 80 % 1034,1 hPa 0,0 l/m 5,8 km/h (2 Bft) O-NO 0,00 h 0,025 mm 0,0 UV-I 0 W/m 1,7 C 4,6 C 9,8 km/h (2 Bft)
09.03.2014 01:00 3,5 C 80 % 1034,2 hPa 0,0 l/m 2,2 km/h (1 Bft) O 0,00 h 0,025 mm 0,0 UV-I 0 W/m 0,5 C 3,5 C 4,2 km/h (1 Bft)
09.03.2014 02:00 1,1 C 85 % 1033,9 hPa 0,0 l/m 0,1 km/h (0 Bft) N-NO 0,00 h 0,025 mm 0,0 UV-I 0 W/m -1,1 C 1,1 C 0,4 km/h (0 Bft)
09.03.2014 03:00 -0,3 C 88 % 1033,7 hPa 0,0 l/m 0,7 km/h (0 Bft) N-NO 0,00 h 0,000 mm 0,0 UV-I 0 W/m -2,0 C -0,3 C 1,2 km/h (1 Bft)
09.03.2014 04:00 -1,1 C 90 % 1033,7 hPa 0,0 l/m 0,1 km/h (0 Bft) N-NO 0,00 h 0,000 mm 0,0 UV-I 0 W/m -2,6 C -1,1 C 0,4 km/h (0 Bft)
09.03.2014 05:00 -1,6 C 92 % 1033,9 hPa 0,0 l/m 0,5 km/h (0 Bft) N-NO 0,00 h 0,000 mm 0,0 UV-I 0 W/m -2,7 C -1,6 C 1,0 km/h (0 Bft)
09.03.2014 06:00 -2,2 C 92 % 1034,0 hPa 0,0 l/m 0,0 km/h (0 Bft) N 0,00 h 0,000 mm 0,0 UV-I 10 W/m -3,3 C -2,2 C 0,0 km/h (0 Bft)
09.03.2014 07:00 -2,0 C 92 % 1034,2 hPa 0,0 l/m 0,0 km/h (0 Bft) N 0,40 h 0,000 mm 0,0 UV-I 59 W/m -3,1 C -2,0 C 0,0 km/h (0 Bft)
09.03.2014 08:00 2,6 C 82 % 1034,3 hPa 0,0 l/m 0,0 km/h (0 Bft) S-SO 1,00 h 0,025 mm 0,7 UV-I 241 W/m -0,2 C 2,6 C 0,2 km/h (0 Bft)
09.03.2014 09:00 7,2 C 72 % 1034,1 hPa 0,0 l/m 0,8 km/h (0 Bft) W-NW 1,00 h 0,076 mm 1,4 UV-I 360 W/m 2,6 C 7,2 C 2,1 km/h (1 Bft)
09.03.2014 10:00 10,3 C 59 % 1033,9 hPa 0,0 l/m 5,6 km/h (1 Bft) SO 1,00 h 0,152 mm 1,9 UV-I 336 W/m 2,6 C 9,7 C 10,3 km/h (2 Bft)
09.03.2014 11:00 11,7 C 53 % 1033,6 hPa 0,0 l/m 6,8 km/h (2 Bft) O-SO 1,00 h 0,178 mm 2,5 UV-I 435 W/m 2,5 C 11,0 C 11,6 km/h (2 Bft)
09.03.2014 12:00 13,3 C 49 % 1033,1 hPa 0,0 l/m 5,3 km/h (1 Bft) O 1,00 h 0,254 mm 2,3 UV-I 310 W/m 2,7 C 13,1 C 9,5 km/h (2 Bft)
09.03.2014 13:00 14,5 C 46 % 1032,5 hPa 0,0 l/m 5,5 km/h (1 Bft) O-NO 1,00 h 0,203 mm 2,3 UV-I 411 W/m 3,1 C 14,1 C 9,9 km/h (2 Bft)
09.03.2014 14:00 15,2 C 41 % 1032,2 hPa 0,0 l/m 6,0 km/h (2 Bft) O 1,00 h 0,254 mm 2,0 UV-I 503 W/m 2,2 C 14,7 C 10,6 km/h (2 Bft)
09.03.2014 15:00 15,3 C 36 % 1031,8 hPa 0,0 l/m 6,6 km/h (2 Bft) SO 1,00 h 0,305 mm 1,2 UV-I 380 W/m 0,3 C 14,7 C 11,6 km/h (2 Bft)
09.03.2014 16:00 14,8 C 43 % 1031,3 hPa 0,0 l/m 4,6 km/h (1 Bft) O-SO 1,00 h 0,254 mm 0,6 UV-I 199 W/m 2,3 C 14,7 C 8,5 km/h (2 Bft)
09.03.2014 17:00 13,2 C 52 % 1031,3 hPa 0,0 l/m 2,6 km/h (1 Bft) O-SO 0,35 h 0,152 mm 0,0 UV-I 40 W/m 3,5 C 13,2 C 5,6 km/h (1 Bft)
09.03.2014 18:00 11,0 C 59 % 1031,6 hPa 0,0 l/m 1,8 km/h (1 Bft) O-SO 0,00 h 0,051 mm 0,0 UV-I 5 W/m 3,2 C 11,0 C 3,9 km/h (1 Bft)
09.03.2014 19:00 8,9 C 61 % 1031,5 hPa 0,0 l/m 3,1 km/h (1 Bft) O 0,00 h 0,025 mm 0,0 UV-I 0 W/m 1,8 C 8,8 C 6,2 km/h (2 Bft)
09.03.2014 20:00 7,8 C 68 % 1031,4 hPa 0,0 l/m 6,1 km/h (2 Bft) O-NO 0,00 h 0,025 mm 0,0 UV-I 0 W/m 2,3 C 7,3 C 10,7 km/h (2 Bft)
09.03.2014 21:00 7,3 C 66 % 1031,3 hPa 0,0 l/m 5,5 km/h (1 Bft) N-NO 0,00 h 0,025 mm 0,0 UV-I 0 W/m 1,4 C 7,0 C 8,9 km/h (2 Bft)
09.03.2014 22:00 6,6 C 65 % 1031,1 hPa 0,0 l/m 4,3 km/h (1 Bft) N-NO 0,00 h 0,025 mm 0,0 UV-I 0 W/m 0,5 C 6,5 C 7,3 km/h (2 Bft)
09.03.2014 23:00 5,6 C 67 % 1030,6 hPa 0,0 l/m 2,0 km/h (1 Bft) O-NO 0,00 h 0,025 mm 0,0 UV-I 0 W/m -0,1 C 5,6 C 3,8 km/h (1 Bft)
Min-Datum _ 07.03.14 09.03.14 03.03.14 - 03.03.14 - - - - - 07.03.14 07.03.14 03.03.14
_ Min-Zeit 06:04 15:16 15:29 - 00:00 - - - - - 06:06 06:06 00:00
Minimum _ -3,6 C 33 % 993,8 hPa - 0,0 km/h (0 Bft) - - - - - -4,7 C -3,6 C 0,0 km/h (0 Bft)
Max-Datum _ 09.03.14 03.03.14 08.03.14 04.03.14 05.03.14 - 07.03.14 09.03.14 09.03.14 05.03.14 04.03.14 09.03.14 05.03.14
_ Max-Zeit 15:07 02:00 21:32 08:00 14:50 - 14:05 15:00 11:48 11:09 12:05 14:09 14:47
Maximum _ 16,0 C 96 % 1034,7 hPa 0,2 l/m 20,9 km/h
NW (4 Bft)
- 0,07 h 0,305 mm 2,9 UV-I 649 W/m 4,7 C 15,7 C 30,6 km/h
N-NW (5 Bft)
Durchschnitt _ 4,6 C 77 % 1019,5 hPa #0,2 l/m 2,6 km/h (1 Bft) N #62:03 h #9,466 mm 1,3 UV-I 205 W/m 0,5 C 4,4 C 4,5 km/h (1 Bft)